sensor_id;sensor_type;location;lat;lon;timestamp;pressure;altitude;pressure_sealevel;temperature;humidity
47366;BME280;33105;47.964;7.982;2023-08-30T00:01:40;96197.41;;;11.10;100.00
47366;BME280;33105;47.964;7.982;2023-08-30T00:04:43;96192.47;;;11.12;100.00
47366;BME280;33105;47.964;7.982;2023-08-30T00:07:51;96188.63;;;11.13;100.00
47366;BME280;33105;47.964;7.982;2023-08-30T00:10:54;96179.84;;;11.16;100.00
47366;BME280;33105;47.964;7.982;2023-08-30T00:14:08;96182.66;;;11.06;100.00
47366;BME280;33105;47.964;7.982;2023-08-30T00:17:22;96181.31;;;10.93;100.00
47366;BME280;33105;47.964;7.982;2023-08-30T00:20:33;96184.84;;;10.99;100.00
47366;BME280;33105;47.964;7.982;2023-08-30T00:23:41;96180.75;;;11.01;100.00
47366;BME280;33105;47.964;7.982;2023-08-30T00:26:51;96192.28;;;10.88;100.00
47366;BME280;33105;47.964;7.982;2023-08-30T00:29:59;96194.19;;;10.77;100.00
47366;BME280;33105;47.964;7.982;2023-08-30T00:33:08;96201.03;;;10.75;100.00
47366;BME280;33105;47.964;7.982;2023-08-30T00:36:18;96198.84;;;10.77;100.00
47366;BME280;33105;47.964;7.982;2023-08-30T00:39:25;96201.31;;;10.78;100.00
47366;BME280;33105;47.964;7.982;2023-08-30T00:42:33;96193.66;;;10.70;100.00
47366;BME280;33105;47.964;7.982;2023-08-30T00:45:42;96194.47;;;10.71;100.00
47366;BME280;33105;47.964;7.982;2023-08-30T00:48:44;96185.47;;;10.70;100.00
47366;BME280;33105;47.964;7.982;2023-08-30T00:51:53;96186.28;;;10.66;100.00
47366;BME280;33105;47.964;7.982;2023-08-30T00:55:12;96182.78;;;10.60;100.00
47366;BME280;33105;47.964;7.982;2023-08-30T00:58:25;96174.84;;;10.59;100.00
47366;BME280;33105;47.964;7.982;2023-08-30T01:01:31;96171.81;;;10.65;100.00
47366;BME280;33105;47.964;7.982;2023-08-30T01:04:38;96166.88;;;10.67;100.00
47366;BME280;33105;47.964;7.982;2023-08-30T01:07:48;96166.13;;;10.56;100.00
47366;BME280;33105;47.964;7.982;2023-08-30T01:11:18;96160.94;;;10.50;100.00
47366;BME280;33105;47.964;7.982;2023-08-30T01:14:49;96165.34;;;10.36;100.00
47366;BME280;33105;47.964;7.982;2023-08-30T01:17:57;96162.59;;;10.36;100.00
47366;BME280;33105;47.964;7.982;2023-08-30T01:21:04;96168.06;;;10.31;100.00
47366;BME280;33105;47.964;7.982;2023-08-30T01:24:25;96161.78;;;10.30;100.00
47366;BME280;33105;47.964;7.982;2023-08-30T01:27:33;96157.69;;;10.38;100.00
47366;BME280;33105;47.964;7.982;2023-08-30T01:30:42;96158.22;;;10.35;100.00
47366;BME280;33105;47.964;7.982;2023-08-30T01:33:50;96152.47;;;10.16;100.00
47366;BME280;33105;47.964;7.982;2023-08-30T01:36:52;96147.00;;;10.16;100.00
47366;BME280;33105;47.964;7.982;2023-08-30T01:39:56;96145.09;;;10.16;100.00
47366;BME280;33105;47.964;7.982;2023-08-30T01:43:02;96147.84;;;10.21;100.00
47366;BME280;33105;47.964;7.982;2023-08-30T01:46:12;96151.41;;;10.12;100.00
47366;BME280;33105;47.964;7.982;2023-08-30T01:49:16;96150.03;;;10.04;100.00
47366;BME280;33105;47.964;7.982;2023-08-30T01:52:27;96157.41;;;10.04;100.00
47366;BME280;33105;47.964;7.982;2023-08-30T01:55:30;96161.50;;;10.11;100.00
47366;BME280;33105;47.964;7.982;2023-08-30T01:58:34;96153.84;;;10.08;100.00
47366;BME280;33105;47.964;7.982;2023-08-30T02:01:37;96153.31;;;10.11;100.00
47366;BME280;33105;47.964;7.982;2023-08-30T02:04:42;96154.41;;;10.05;100.00
47366;BME280;33105;47.964;7.982;2023-08-30T02:08:02;96150.56;;;10.06;100.00
47366;BME280;33105;47.964;7.982;2023-08-30T02:11:19;96149.75;;;9.96;100.00
47366;BME280;33105;47.964;7.982;2023-08-30T02:14:23;96147.28;;;9.94;100.00
47366;BME280;33105;47.964;7.982;2023-08-30T02:18:07;96142.94;;;10.13;100.00
47366;BME280;33105;47.964;7.982;2023-08-30T02:21:14;96146.75;;;10.07;100.00
47366;BME280;33105;47.964;7.982;2023-08-30T02:24:29;96138.56;;;10.07;100.00
47366;BME280;33105;47.964;7.982;2023-08-30T02:27:33;96140.75;;;10.10;100.00
47366;BME280;33105;47.964;7.982;2023-08-30T02:30:40;96143.75;;;10.14;100.00
47366;BME280;33105;47.964;7.982;2023-08-30T02:33:50;96145.09;;;10.16;100.00
47366;BME280;33105;47.964;7.982;2023-08-30T02:36:55;96138.84;;;10.11;100.00
47366;BME280;33105;47.964;7.982;2023-08-30T02:40:17;96136.13;;;10.31;100.00
47366;BME280;33105;47.964;7.982;2023-08-30T02:43:19;96130.66;;;10.36;100.00
47366;BME280;33105;47.964;7.982;2023-08-30T02:46:21;96136.63;;;10.18;100.00
47366;BME280;33105;47.964;7.982;2023-08-30T02:49:23;96145.94;;;10.12;100.00
47366;BME280;33105;47.964;7.982;2023-08-30T02:52:26;96138.00;;;10.00;100.00
47366;BME280;33105;47.964;7.982;2023-08-30T02:55:28;96145.66;;;10.03;100.00
47366;BME280;33105;47.964;7.982;2023-08-30T02:58:30;96138.00;;;9.95;100.00
47366;BME280;33105;47.964;7.982;2023-08-30T03:01:35;96142.38;;;9.91;100.00
47366;BME280;33105;47.964;7.982;2023-08-30T03:04:37;96128.19;;;9.79;100.00
47366;BME280;33105;47.964;7.982;2023-08-30T03:07:40;96130.94;;;9.89;100.00
47366;BME280;33105;47.964;7.982;2023-08-30T03:10:42;96121.91;;;9.94;100.00
47366;BME280;33105;47.964;7.982;2023-08-30T03:13:45;96121.94;;;9.88;100.00
47366;BME280;33105;47.964;7.982;2023-08-30T03:16:47;96123.28;;;9.86;100.00
47366;BME280;33105;47.964;7.982;2023-08-30T03:19:51;96117.03;;;9.85;100.00
47366;BME280;33105;47.964;7.982;2023-08-30T03:22:58;96118.38;;;9.73;100.00
47366;BME280;33105;47.964;7.982;2023-08-30T03:25:59;96120.28;;;9.87;100.00
47366;BME280;33105;47.964;7.982;2023-08-30T03:29:01;96118.09;;;9.84;100.00
47366;BME280;33105;47.964;7.982;2023-08-30T03:32:03;96116.75;;;9.82;100.00
47366;BME280;33105;47.964;7.982;2023-08-30T03:35:07;96120.25;;;9.67;100.00
47366;BME280;33105;47.964;7.982;2023-08-30T03:38:10;96121.63;;;9.60;100.00
47366;BME280;33105;47.964;7.982;2023-08-30T03:41:11;96114.00;;;9.62;100.00
47366;BME280;33105;47.964;7.982;2023-08-30T03:44:14;96112.66;;;9.59;100.00
47366;BME280;33105;47.964;7.982;2023-08-30T03:47:16;96107.47;;;9.58;100.00
47366;BME280;33105;47.964;7.982;2023-08-30T03:50:19;96115.66;;;9.78;100.00
47366;BME280;33105;47.964;7.982;2023-08-30T03:53:21;96124.09;;;9.76;100.00
47366;BME280;33105;47.964;7.982;2023-08-30T03:56:23;96123.00;;;9.82;100.00
47366;BME280;33105;47.964;7.982;2023-08-30T03:59:24;96126.00;;;9.81;100.00
47366;BME280;33105;47.964;7.982;2023-08-30T04:02:28;96120.53;;;9.71;100.00
47366;BME280;33105;47.964;7.982;2023-08-30T04:05:33;96126.00;;;9.71;100.00
47366;BME280;33105;47.964;7.982;2023-08-30T04:08:35;96128.19;;;9.64;100.00
47366;BME280;33105;47.964;7.982;2023-08-30T04:11:36;96124.91;;;9.57;100.00
47366;BME280;33105;47.964;7.982;2023-08-30T04:14:37;96130.91;;;9.64;100.00
47366;BME280;33105;47.964;7.982;2023-08-30T04:17:38;96133.63;;;9.59;100.00
47366;BME280;33105;47.964;7.982;2023-08-30T04:20:47;96128.72;;;9.71;100.00
47366;BME280;33105;47.964;7.982;2023-08-30T04:23:48;96131.22;;;9.87;100.00
47366;BME280;33105;47.964;7.982;2023-08-30T04:26:50;96124.63;;;9.73;100.00
47366;BME280;33105;47.964;7.982;2023-08-30T04:29:54;96125.19;;;9.60;100.00
47366;BME280;33105;47.964;7.982;2023-08-30T04:32:55;96124.91;;;9.67;100.00
47366;BME280;33105;47.964;7.982;2023-08-30T04:35:57;96125.47;;;9.74;100.00
47366;BME280;33105;47.964;7.982;2023-08-30T04:39:01;96120.81;;;9.59;100.00
47366;BME280;33105;47.964;7.982;2023-08-30T04:42:03;96125.72;;;9.57;100.00
47366;BME280;33105;47.964;7.982;2023-08-30T04:45:06;96133.13;;;9.82;100.00
47366;BME280;33105;47.964;7.982;2023-08-30T04:48:07;96129.28;;;9.93;100.00
47366;BME280;33105;47.964;7.982;2023-08-30T04:51:10;96124.38;;;9.80;100.00
47366;BME280;33105;47.964;7.982;2023-08-30T04:54:11;96121.38;;;9.97;100.00
47366;BME280;33105;47.964;7.982;2023-08-30T04:57:12;96123.81;;;9.93;100.00
47366;BME280;33105;47.964;7.982;2023-08-30T05:00:16;96130.09;;;9.94;100.00
47366;BME280;33105;47.964;7.982;2023-08-30T05:03:18;96126.84;;;9.81;100.00
47366;BME280;33105;47.964;7.982;2023-08-30T05:06:19;96132.00;;;9.93;100.00
47366;BME280;33105;47.964;7.982;2023-08-30T05:09:20;96126.25;;;10.15;100.00
47366;BME280;33105;47.964;7.982;2023-08-30T05:12:25;96135.56;;;10.04;100.00
47366;BME280;33105;47.964;7.982;2023-08-30T05:15:27;96127.91;;;10.06;100.00
47366;BME280;33105;47.964;7.982;2023-08-30T05:18:28;96133.38;;;9.96;100.00
47366;BME280;33105;47.964;7.982;2023-08-30T05:21:29;96138.81;;;9.90;100.00
47366;BME280;33105;47.964;7.982;2023-08-30T05:24:30;96138.03;;;10.05;100.00
47366;BME280;33105;47.964;7.982;2023-08-30T05:27:32;96138.03;;;10.26;100.00
47366;BME280;33105;47.964;7.982;2023-08-30T05:30:33;96142.41;;;10.27;100.00
47366;BME280;33105;47.964;7.982;2023-08-30T05:33:45;96135.84;;;10.38;100.00
47366;BME280;33105;47.964;7.982;2023-08-30T05:37:07;96135.28;;;10.31;100.00
47366;BME280;33105;47.964;7.982;2023-08-30T05:40:27;96127.94;;;10.11;100.00
47366;BME280;33105;47.964;7.982;2023-08-30T05:43:30;96131.47;;;10.01;100.00
47366;BME280;33105;47.964;7.982;2023-08-30T05:46:32;96141.84;;;9.99;100.00
47366;BME280;33105;47.964;7.982;2023-08-30T05:49:33;96141.31;;;10.12;100.00
47366;BME280;33105;47.964;7.982;2023-08-30T05:52:35;96139.13;;;10.09;100.00
47366;BME280;33105;47.964;7.982;2023-08-30T05:55:37;96141.28;;;10.17;100.00
47366;BME280;33105;47.964;7.982;2023-08-30T05:58:38;96144.53;;;10.45;100.00
47366;BME280;33105;47.964;7.982;2023-08-30T06:01:39;96137.72;;;10.47;100.00
47366;BME280;33105;47.964;7.982;2023-08-30T06:04:41;96130.81;;;10.70;100.00
47366;BME280;33105;47.964;7.982;2023-08-30T06:07:42;96126.22;;;10.61;100.00
47366;BME280;33105;47.964;7.982;2023-08-30T06:10:43;96134.63;;;10.79;100.00
47366;BME280;33105;47.964;7.982;2023-08-30T06:13:46;96128.00;;;10.96;100.00
47366;BME280;33105;47.964;7.982;2023-08-30T06:16:47;96127.44;;;10.99;100.00
47366;BME280;33105;47.964;7.982;2023-08-30T06:19:50;96132.13;;;10.93;100.00
47366;BME280;33105;47.964;7.982;2023-08-30T06:22:51;96128.97;;;11.25;100.00
47366;BME280;33105;47.964;7.982;2023-08-30T06:25:54;96122.41;;;11.21;100.00
47366;BME280;33105;47.964;7.982;2023-08-30T06:28:56;96118.19;;;11.44;100.00
47366;BME280;33105;47.964;7.982;2023-08-30T06:31:58;96121.19;;;11.42;100.00
47366;BME280;33105;47.964;7.982;2023-08-30T06:35:00;96121.56;;;11.31;100.00
47366;BME280;33105;47.964;7.982;2023-08-30T06:38:02;96134.72;;;11.23;100.00
47366;BME280;33105;47.964;7.982;2023-08-30T06:41:06;96131.16;;;11.28;100.00
47366;BME280;33105;47.964;7.982;2023-08-30T06:44:08;96123.91;;;11.47;100.00
47366;BME280;33105;47.964;7.982;2023-08-30T06:47:10;96132.63;;;11.54;100.00
47366;BME280;33105;47.964;7.982;2023-08-30T06:50:17;96120.56;;;11.61;100.00
47366;BME280;33105;47.964;7.982;2023-08-30T06:53:44;96112.34;;;11.61;100.00
47366;BME280;33105;47.964;7.982;2023-08-30T06:56:58;96113.34;;;11.75;100.00
47366;BME280;33105;47.964;7.982;2023-08-30T07:00:00;96114.28;;;11.99;100.00
47366;BME280;33105;47.964;7.982;2023-08-30T07:03:08;96108.16;;;11.78;100.00
47366;BME280;33105;47.964;7.982;2023-08-30T07:06:13;96113.69;;;12.02;100.00
47366;BME280;33105;47.964;7.982;2023-08-30T07:09:35;96114.03;;;12.24;100.00
47366;BME280;33105;47.964;7.982;2023-08-30T07:12:59;96107.66;;;12.34;100.00
47366;BME280;33105;47.964;7.982;2023-08-30T07:16:02;96110.25;;;12.49;100.00
47366;BME280;33105;47.964;7.982;2023-08-30T07:19:21;96117.28;;;12.84;100.00
47366;BME280;33105;47.964;7.982;2023-08-30T07:22:47;96109.72;;;12.71;100.00
47366;BME280;33105;47.964;7.982;2023-08-30T07:25:51;96115.69;;;12.78;100.00
47366;BME280;33105;47.964;7.982;2023-08-30T07:29:02;96112.81;;;12.88;100.00
47366;BME280;33105;47.964;7.982;2023-08-30T07:32:33;96114.63;;;12.74;100.00
47366;BME280;33105;47.964;7.982;2023-08-30T07:35:49;96113.34;;;12.90;100.00
47366;BME280;33105;47.964;7.982;2023-08-30T07:39:11;96113.28;;;12.95;100.00
47366;BME280;33105;47.964;7.982;2023-08-30T07:42:14;96108.13;;;13.13;100.00
47366;BME280;33105;47.964;7.982;2023-08-30T07:45:19;96106.16;;;13.18;100.00
47366;BME280;33105;47.964;7.982;2023-08-30T07:48:26;96098.13;;;13.03;100.00
47366;BME280;33105;47.964;7.982;2023-08-30T07:55:25;96102.91;;;12.92;100.00
47366;BME280;33105;47.964;7.982;2023-08-30T08:02:00;96086.91;;;13.61;100.00
47366;BME280;33105;47.964;7.982;2023-08-30T08:05:27;96088.03;;;13.41;100.00
47366;BME280;33105;47.964;7.982;2023-08-30T08:08:28;96090.19;;;13.02;100.00
47366;BME280;33105;47.964;7.982;2023-08-30T08:11:55;96082.94;;;13.11;100.00
47366;BME280;33105;47.964;7.982;2023-08-30T08:18:45;96080.31;;;13.24;100.00
47366;BME280;33105;47.964;7.982;2023-08-30T08:22:24;96079.59;;;13.56;100.00
47366;BME280;33105;47.964;7.982;2023-08-30T08:25:58;96085.56;;;13.40;100.00
47366;BME280;33105;47.964;7.982;2023-08-30T08:29:40;96086.19;;;13.55;100.00
47366;BME280;33105;47.964;7.982;2023-08-30T08:37:20;96086.59;;;13.62;100.00
47366;BME280;33105;47.964;7.982;2023-08-30T08:41:02;96095.53;;;13.54;100.00
47366;BME280;33105;47.964;7.982;2023-08-30T08:44:08;96089.22;;;13.73;100.00
47366;BME280;33105;47.964;7.982;2023-08-30T08:52:35;96087.06;;;13.70;100.00
47366;BME280;33105;47.964;7.982;2023-08-30T09:01:33;96091.88;;;13.78;100.00
47366;BME280;33105;47.964;7.982;2023-08-30T09:04:49;96098.13;;;13.83;100.00
47366;BME280;33105;47.964;7.982;2023-08-30T09:08:18;96095.66;;;13.44;100.00
47366;BME280;33105;47.964;7.982;2023-08-30T09:16:42;96100.63;;;14.12;100.00
47366;BME280;33105;47.964;7.982;2023-08-30T09:23:31;96101.84;;;14.39;100.00
47366;BME280;33105;47.964;7.982;2023-08-30T09:27:03;96105.38;;;14.25;100.00
47366;BME280;33105;47.964;7.982;2023-08-30T09:39:55;96105.16;;;14.54;100.00
47366;BME280;33105;47.964;7.982;2023-08-30T09:42:59;96110.84;;;14.44;100.00
47366;BME280;33105;47.964;7.982;2023-08-30T09:46:43;96115.16;;;14.32;100.00
47366;BME280;33105;47.964;7.982;2023-08-30T10:06:51;96104.34;;;14.68;100.00
47366;BME280;33105;47.964;7.982;2023-08-30T10:10:26;96110.09;;;14.98;100.00
47366;BME280;33105;47.964;7.982;2023-08-30T11:07:18;96095.41;;;14.89;100.00
47366;BME280;33105;47.964;7.982;2023-08-30T11:10:35;96094.38;;;15.26;100.00
47366;BME280;33105;47.964;7.982;2023-08-30T11:13:37;96093.09;;;15.60;100.00
47366;BME280;33105;47.964;7.982;2023-08-30T11:17:42;96087.31;;;15.84;96.21
47366;BME280;33105;47.964;7.982;2023-08-30T11:30:23;96067.75;;;16.39;91.95
47366;BME280;33105;47.964;7.982;2023-08-30T11:34:01;96063.78;;;16.84;88.42
47366;BME280;33105;47.964;7.982;2023-08-30T11:37:44;96060.97;;;17.07;85.34
47366;BME280;33105;47.964;7.982;2023-08-30T11:42:16;96049.31;;;16.70;96.17
47366;BME280;33105;47.964;7.982;2023-08-30T11:45:37;96050.41;;;17.09;95.12
47366;BME280;33105;47.964;7.982;2023-08-30T11:52:58;96039.63;;;16.90;88.68
47366;BME280;33105;47.964;7.982;2023-08-30T11:56:08;96031.44;;;17.33;83.43
47366;BME280;33105;47.964;7.982;2023-08-30T11:59:34;96028.88;;;17.45;76.40
47366;BME280;33105;47.964;7.982;2023-08-30T12:02:36;96027.88;;;17.32;80.79
47366;BME280;33105;47.964;7.982;2023-08-30T12:09:32;96040.50;;;17.08;80.42
47366;BME280;33105;47.964;7.982;2023-08-30T12:13:02;96038.38;;;16.96;86.23
47366;BME280;33105;47.964;7.982;2023-08-30T12:16:06;96037.16;;;17.28;79.45
47366;BME280;33105;47.964;7.982;2023-08-30T12:19:28;96029.22;;;16.78;91.11
47366;BME280;33105;47.964;7.982;2023-08-30T12:22:39;96023.06;;;17.55;84.57
47366;BME280;33105;47.964;7.982;2023-08-30T12:26:50;96015.72;;;17.42;79.30
47366;BME280;33105;47.964;7.982;2023-08-30T12:30:07;96018.81;;;18.01;83.37
47366;BME280;33105;47.964;7.982;2023-08-30T12:33:09;96015.16;;;18.35;77.25
47366;BME280;33105;47.964;7.982;2023-08-30T12:36:11;96005.81;;;17.84;79.49
47366;BME280;33105;47.964;7.982;2023-08-30T12:39:18;96016.16;;;17.18;81.99
47366;BME280;33105;47.964;7.982;2023-08-30T12:50:33;96010.16;;;16.28;84.10
47366;BME280;33105;47.964;7.982;2023-08-30T12:53:43;96004.47;;;16.25;87.25
47366;BME280;33105;47.964;7.982;2023-08-30T12:57:05;96013.13;;;16.10;81.43
47366;BME280;33105;47.964;7.982;2023-08-30T13:01:02;96008.16;;;16.20;81.76
47366;BME280;33105;47.964;7.982;2023-08-30T13:04:35;96017.81;;;16.31;89.32
47366;BME280;33105;47.964;7.982;2023-08-30T15:10:49;96013.31;;;16.75;80.75
47366;BME280;33105;47.964;7.982;2023-08-30T15:14:35;96011.38;;;16.84;71.99
47366;BME280;33105;47.964;7.982;2023-08-30T15:18:24;96012.78;;;16.64;79.99
47366;BME280;33105;47.964;7.982;2023-08-30T15:21:26;96010.91;;;16.82;77.08
47366;BME280;33105;47.964;7.982;2023-08-30T15:24:46;96000.88;;;16.95;70.53
47366;BME280;33105;47.964;7.982;2023-08-30T15:28:36;96000.09;;;17.20;66.15
47366;BME280;33105;47.964;7.982;2023-08-30T15:32:22;96004.63;;;17.16;69.92
47366;BME280;33105;47.964;7.982;2023-08-30T15:36:08;96003.09;;;16.76;74.13
47366;BME280;33105;47.964;7.982;2023-08-30T15:43:13;96001.16;;;16.85;69.50
47366;BME280;33105;47.964;7.982;2023-08-30T15:46:35;96003.41;;;16.83;78.27
47366;BME280;33105;47.964;7.982;2023-08-30T15:49:48;95998.56;;;16.88;77.75
47366;BME280;33105;47.964;7.982;2023-08-30T15:53:35;95999.47;;;17.41;68.50
47366;BME280;33105;47.964;7.982;2023-08-30T15:56:58;95985.88;;;17.79;67.56
47366;BME280;33105;47.964;7.982;2023-08-30T16:00:10;95988.22;;;18.15;61.33
47366;BME280;33105;47.964;7.982;2023-08-30T16:03:31;95991.63;;;18.20;60.17
47366;BME280;33105;47.964;7.982;2023-08-30T16:06:32;95987.94;;;17.90;64.38
47366;BME280;33105;47.964;7.982;2023-08-30T16:09:34;95994.16;;;17.79;63.73
47366;BME280;33105;47.964;7.982;2023-08-30T16:13:07;95992.34;;;18.00;62.50
47366;BME280;33105;47.964;7.982;2023-08-30T16:16:26;95989.53;;;18.09;58.89
47366;BME280;33105;47.964;7.982;2023-08-30T16:19:33;95996.06;;;18.04;57.08
47366;BME280;33105;47.964;7.982;2023-08-30T16:22:45;96003.88;;;17.93;58.09
47366;BME280;33105;47.964;7.982;2023-08-30T16:25:59;95989.75;;;17.78;59.85
47366;BME280;33105;47.964;7.982;2023-08-30T16:29:43;95992.34;;;17.65;61.78
47366;BME280;33105;47.964;7.982;2023-08-30T16:33:15;95995.28;;;17.69;62.04
47366;BME280;33105;47.964;7.982;2023-08-30T16:36:48;95991.84;;;17.55;61.86
47366;BME280;33105;47.964;7.982;2023-08-30T16:49:41;96002.56;;;17.30;64.87
47366;BME280;33105;47.964;7.982;2023-08-30T16:52:57;96000.63;;;17.48;61.62
47366;BME280;33105;47.964;7.982;2023-08-30T16:56:52;96001.22;;;17.02;68.22
47366;BME280;33105;47.964;7.982;2023-08-30T17:04:45;95992.28;;;17.14;65.76
47366;BME280;33105;47.964;7.982;2023-08-30T17:07:57;95999.81;;;17.30;59.39
47366;BME280;33105;47.964;7.982;2023-08-30T17:12:11;95996.53;;;17.37;63.02
47366;BME280;33105;47.964;7.982;2023-08-30T17:15:29;95998.78;;;17.18;63.83
47366;BME280;33105;47.964;7.982;2023-08-30T17:18:34;95996.50;;;17.03;64.51
47366;BME280;33105;47.964;7.982;2023-08-30T17:21:48;96003.81;;;17.07;60.90
47366;BME280;33105;47.964;7.982;2023-08-30T17:25:35;96008.78;;;16.88;66.97
47366;BME280;33105;47.964;7.982;2023-08-30T17:29:07;96013.00;;;16.85;64.45
47366;BME280;33105;47.964;7.982;2023-08-30T17:32:52;96017.88;;;16.49;70.56
47366;BME280;33105;47.964;7.982;2023-08-30T17:36:11;96025.50;;;16.21;68.57
47366;BME280;33105;47.964;7.982;2023-08-30T17:40:07;96033.09;;;16.15;70.14
47366;BME280;33105;47.964;7.982;2023-08-30T17:43:52;96037.59;;;16.11;70.63
47366;BME280;33105;47.964;7.982;2023-08-30T17:47:56;96047.00;;;15.88;74.13
47366;BME280;33105;47.964;7.982;2023-08-30T17:55:22;96050.25;;;15.90;69.13
47366;BME280;33105;47.964;7.982;2023-08-30T17:59:25;96045.75;;;15.72;71.90
47366;BME280;33105;47.964;7.982;2023-08-30T18:03:23;96049.06;;;15.46;73.75
47366;BME280;33105;47.964;7.982;2023-08-30T18:07:01;96060.13;;;15.19;77.27
47366;BME280;33105;47.964;7.982;2023-08-30T18:10:25;96060.56;;;14.85;79.99
47366;BME280;33105;47.964;7.982;2023-08-30T18:14:52;96074.59;;;15.11;75.01
47366;BME280;33105;47.964;7.982;2023-08-30T18:18:42;96074.19;;;15.17;74.95
47366;BME280;33105;47.964;7.982;2023-08-30T18:21:53;96086.13;;;14.85;79.02
47366;BME280;33105;47.964;7.982;2023-08-30T18:26:04;96088.06;;;14.57;81.53
47366;BME280;33105;47.964;7.982;2023-08-30T18:29:35;96091.81;;;14.48;81.62
47366;BME280;33105;47.964;7.982;2023-08-30T18:33:05;96098.94;;;14.16;85.00
47366;BME280;33105;47.964;7.982;2023-08-30T18:36:06;96089.50;;;14.22;84.70
47366;BME280;33105;47.964;7.982;2023-08-30T18:40:12;96100.75;;;14.07;85.65
47366;BME280;33105;47.964;7.982;2023-08-30T18:43:49;96103.66;;;13.97;88.14
47366;BME280;33105;47.964;7.982;2023-08-30T18:47:40;96113.44;;;14.03;87.20
47366;BME280;33105;47.964;7.982;2023-08-30T18:51:52;96113.31;;;13.76;89.37
47366;BME280;33105;47.964;7.982;2023-08-30T18:55:26;96124.84;;;13.59;89.05
47366;BME280;33105;47.964;7.982;2023-08-30T19:02:52;96137.44;;;13.79;90.22
47366;BME280;33105;47.964;7.982;2023-08-30T19:06:02;96144.97;;;13.87;91.78
47366;BME280;33105;47.964;7.982;2023-08-30T19:09:44;96140.13;;;13.84;92.20
47366;BME280;33105;47.964;7.982;2023-08-30T19:12:52;96133.81;;;13.83;92.91
47366;BME280;33105;47.964;7.982;2023-08-30T19:16:23;96142.34;;;13.82;91.07
47366;BME280;33105;47.964;7.982;2023-08-30T19:20:09;96139.50;;;13.87;91.52
47366;BME280;33105;47.964;7.982;2023-08-30T19:24:08;96135.59;;;13.74;93.75
47366;BME280;33105;47.964;7.982;2023-08-30T19:27:29;96140.84;;;13.71;93.77
47366;BME280;33105;47.964;7.982;2023-08-30T19:30:30;96134.53;;;13.70;93.53
47366;BME280;33105;47.964;7.982;2023-08-30T19:34:25;96134.31;;;13.67;94.36
47366;BME280;33105;47.964;7.982;2023-08-30T19:41:15;96146.78;;;13.59;93.74
47366;BME280;33105;47.964;7.982;2023-08-30T19:44:44;96148.78;;;13.53;93.23
47366;BME280;33105;47.964;7.982;2023-08-30T19:48:42;96152.69;;;13.47;92.82
47366;BME280;33105;47.964;7.982;2023-08-30T19:52:45;96155.28;;;13.39;93.41
47366;BME280;33105;47.964;7.982;2023-08-30T19:55:59;96156.81;;;13.26;94.35
47366;BME280;33105;47.964;7.982;2023-08-30T19:59:53;96151.66;;;13.43;95.97
47366;BME280;33105;47.964;7.982;2023-08-30T20:02:35;96157.19;;;13.38;94.80
47366;BME280;33105;47.964;7.982;2023-08-30T20:06:05;96155.78;;;13.41;95.06
47366;BME280;33105;47.964;7.982;2023-08-30T20:10:10;96154.31;;;13.30;93.79
47366;BME280;33105;47.964;7.982;2023-08-30T20:13:27;96161.72;;;13.29;94.32
47366;BME280;33105;47.964;7.982;2023-08-30T20:17:24;96150.06;;;13.80;89.95
47366;BME280;33105;47.964;7.982;2023-08-30T20:21:52;96159.91;;;13.62;92.60
47366;BME280;33105;47.964;7.982;2023-08-30T20:26:09;96155.88;;;13.36;95.15
47366;BME280;33105;47.964;7.982;2023-08-30T20:30:12;96161.66;;;13.34;95.10
47366;BME280;33105;47.964;7.982;2023-08-30T20:38:37;96163.44;;;13.44;93.38
47366;BME280;33105;47.964;7.982;2023-08-30T20:42:39;96161.94;;;13.09;95.48
47366;BME280;33105;47.964;7.982;2023-08-30T20:45:57;96162.41;;;13.16;94.49
47366;BME280;33105;47.964;7.982;2023-08-30T20:49:55;96178.13;;;13.34;96.83
47366;BME280;33105;47.964;7.982;2023-08-30T20:54:06;96162.88;;;13.47;96.20
47366;BME280;33105;47.964;7.982;2023-08-30T20:58:21;96167.34;;;13.38;94.88
47366;BME280;33105;47.964;7.982;2023-08-30T21:02:00;96174.34;;;13.30;96.50
47366;BME280;33105;47.964;7.982;2023-08-30T21:23:13;96190.66;;;13.40;98.51
47366;BME280;33105;47.964;7.982;2023-08-30T21:31:34;96213.91;;;13.24;99.64
47366;BME280;33105;47.964;7.982;2023-08-30T21:35:58;96213.03;;;13.71;98.27
47366;BME280;33105;47.964;7.982;2023-08-30T21:39:49;96218.41;;;14.00;96.64
47366;BME280;33105;47.964;7.982;2023-08-30T21:53:14;96233.63;;;13.50;100.00
